createdAt,value
2022-12-08T00:01:46.230Z,7.70
2022-12-08T00:04:18.291Z,7.70
2022-12-08T00:07:06.098Z,7.60
2022-12-08T00:09:44.406Z,7.70
2022-12-08T00:12:13.676Z,7.60
2022-12-08T00:14:46.298Z,7.60
2022-12-08T00:17:16.665Z,7.70
2022-12-08T00:19:53.532Z,7.60
2022-12-08T00:22:22.523Z,7.70
2022-12-08T00:24:51.834Z,7.60
2022-12-08T00:27:18.493Z,7.60
2022-12-08T00:29:50.420Z,7.70
2022-12-08T00:32:17.091Z,7.70
2022-12-08T00:34:46.355Z,7.70
2022-12-08T00:37:14.871Z,7.60
2022-12-08T00:39:42.737Z,7.70
2022-12-08T00:42:13.985Z,7.70
2022-12-08T00:44:44.765Z,7.70
2022-12-08T00:47:12.703Z,7.70
2022-12-08T00:49:40.458Z,7.70
2022-12-08T00:52:09.524Z,7.70
2022-12-08T00:54:36.417Z,7.70
2022-12-08T00:57:03.447Z,7.70
2022-12-08T00:59:30.057Z,7.80
2022-12-08T01:02:01.781Z,7.80
2022-12-08T01:04:28.448Z,7.70
2022-12-08T01:06:57.300Z,7.80
2022-12-08T01:09:23.959Z,7.80
2022-12-08T01:11:50.591Z,7.80
2022-12-08T01:14:19.456Z,7.80
2022-12-08T01:16:49.436Z,7.80
2022-12-08T01:19:17.165Z,7.80
2022-12-08T01:21:44.825Z,7.90
2022-12-08T01:24:14.612Z,7.90
2022-12-08T01:26:41.701Z,7.90
2022-12-08T01:29:13.008Z,7.90
2022-12-08T01:31:42.562Z,7.90
2022-12-08T01:34:12.804Z,7.90
2022-12-08T01:36:44.309Z,7.90
2022-12-08T01:39:16.343Z,7.90
2022-12-08T01:41:47.800Z,7.90
2022-12-08T01:44:17.465Z,7.90
2022-12-08T01:46:47.208Z,7.90
2022-12-08T01:49:27.176Z,7.90
2022-12-08T01:52:02.634Z,8.00
2022-12-08T01:54:34.657Z,7.90
2022-12-08T01:57:10.509Z,8.00
2022-12-08T01:59:47.578Z,8.00
2022-12-08T02:02:15.581Z,8.00
2022-12-08T02:04:44.717Z,8.00
2022-12-08T02:07:13.703Z,8.00
2022-12-08T02:09:44.805Z,8.00
2022-12-08T02:12:14.459Z,8.00
2022-12-08T02:14:42.388Z,8.00
2022-12-08T02:17:51.795Z,8.00
2022-12-08T02:20:36.741Z,8.00
2022-12-08T02:23:06.204Z,8.00
2022-12-08T02:25:42.848Z,8.00
2022-12-08T02:28:33.845Z,8.00
2022-12-08T02:31:16.794Z,8.00
2022-12-08T02:33:52.088Z,8.00
2022-12-08T02:36:37.400Z,8.00
2022-12-08T02:39:04.097Z,8.00
2022-12-08T02:41:53.808Z,8.00
2022-12-08T02:44:36.187Z,8.00
2022-12-08T02:47:17.548Z,8.00
2022-12-08T02:49:44.247Z,8.00
2022-12-08T02:52:19.555Z,8.00
2022-12-08T02:54:55.757Z,8.00
2022-12-08T02:57:38.801Z,8.00
2022-12-08T03:00:16.942Z,8.00
2022-12-08T03:02:52.671Z,8.00
2022-12-08T03:05:42.245Z,8.00
2022-12-08T03:08:20.361Z,8.00
2022-12-08T03:11:02.504Z,8.00
2022-12-08T03:13:41.563Z,8.00
2022-12-08T03:16:12.547Z,8.00
2022-12-08T03:18:44.409Z,8.00
2022-12-08T03:21:14.427Z,8.00
2022-12-08T03:23:44.510Z,8.00
2022-12-08T03:26:23.447Z,8.00
2022-12-08T03:28:50.316Z,8.00
2022-12-08T03:31:18.603Z,8.00
2022-12-08T03:33:51.540Z,8.00
2022-12-08T03:36:20.839Z,7.90
2022-12-08T03:38:53.958Z,8.00
2022-12-08T03:41:22.115Z,8.00
2022-12-08T03:43:53.377Z,8.00
2022-12-08T03:48:48.593Z,8.00
2022-12-08T03:51:15.794Z,8.00
2022-12-08T03:53:45.682Z,8.00
2022-12-08T03:56:17.016Z,8.00
2022-12-08T03:58:44.385Z,7.90
2022-12-08T04:01:12.245Z,8.00
2022-12-08T04:03:38.917Z,8.00
2022-12-08T04:06:06.499Z,7.90
2022-12-08T04:08:35.900Z,7.90
2022-12-08T04:11:02.556Z,7.90
2022-12-08T04:13:29.620Z,7.90
2022-12-08T04:15:57.501Z,7.90
2022-12-08T04:18:24.236Z,7.90
2022-12-08T04:20:50.852Z,7.90
2022-12-08T04:23:19.860Z,7.90
2022-12-08T04:25:46.564Z,7.90
2022-12-08T04:28:13.376Z,7.90
2022-12-08T04:30:41.093Z,7.90
2022-12-08T04:33:07.705Z,7.90
2022-12-08T04:35:34.375Z,7.90
2022-12-08T04:38:01.026Z,7.90
2022-12-08T04:40:27.760Z,7.90
2022-12-08T04:42:54.387Z,7.90
2022-12-08T04:45:21.007Z,7.90
2022-12-08T04:47:49.787Z,7.90
2022-12-08T04:50:19.295Z,7.90
2022-12-08T04:52:47.537Z,7.90
2022-12-08T04:55:16.623Z,7.90
2022-12-08T04:57:44.845Z,7.90
2022-12-08T05:00:13.415Z,7.90
2022-12-08T05:02:42.659Z,7.90
2022-12-08T05:05:14.056Z,7.90
2022-12-08T05:07:41.980Z,7.90
2022-12-08T05:10:11.175Z,7.90
2022-12-08T05:12:37.808Z,7.90
2022-12-08T05:15:04.964Z,7.90
2022-12-08T05:17:31.547Z,7.90
2022-12-08T05:19:58.218Z,7.90
2022-12-08T05:22:24.814Z,7.90
2022-12-08T05:24:51.407Z,7.80
2022-12-08T05:27:20.181Z,7.80
2022-12-08T05:29:48.045Z,7.80
2022-12-08T05:32:14.656Z,7.80
2022-12-08T05:34:41.405Z,7.80
2022-12-08T05:37:08.023Z,7.80
2022-12-08T05:39:34.695Z,7.70
2022-12-08T05:42:01.326Z,7.70
2022-12-08T05:44:28.077Z,7.80
2022-12-08T05:46:54.992Z,7.70
2022-12-08T05:49:21.618Z,7.70
2022-12-08T05:51:48.275Z,7.70
2022-12-08T05:54:14.886Z,7.70
2022-12-08T05:56:41.547Z,7.70
2022-12-08T05:59:08.640Z,7.70
2022-12-08T06:01:35.490Z,7.70
2022-12-08T06:04:03.819Z,7.70
2022-12-08T06:06:31.071Z,7.70
2022-12-08T06:08:57.923Z,7.70
2022-12-08T06:11:30.295Z,7.70
2022-12-08T06:13:57.780Z,7.70
2022-12-08T06:16:28.375Z,7.70
2022-12-08T06:18:55.823Z,7.70
2022-12-08T06:21:22.619Z,7.70
2022-12-08T06:23:51.462Z,7.70
2022-12-08T06:26:21.575Z,7.70
2022-12-08T06:28:49.369Z,7.70
2022-12-08T06:31:22.519Z,7.70
2022-12-08T06:33:49.538Z,7.70
2022-12-08T06:36:19.137Z,7.70
2022-12-08T06:38:46.192Z,7.70
2022-12-08T06:41:13.472Z,7.70
2022-12-08T06:43:40.828Z,7.70
2022-12-08T06:46:10.442Z,7.70
2022-12-08T06:48:37.134Z,7.70
2022-12-08T06:51:12.051Z,7.70
2022-12-08T06:53:48.494Z,7.60
2022-12-08T06:56:15.811Z,7.60
2022-12-08T06:58:46.121Z,7.60
2022-12-08T07:01:17.334Z,7.60
2022-12-08T07:03:44.296Z,7.60
2022-12-08T07:06:18.014Z,7.60
2022-12-08T07:08:44.753Z,7.60
2022-12-08T07:11:18.025Z,7.50
2022-12-08T07:13:48.076Z,7.50
2022-12-08T07:16:17.412Z,7.50
2022-12-08T07:18:46.339Z,7.50
2022-12-08T07:21:18.151Z,7.50
2022-12-08T07:23:56.053Z,7.50
2022-12-08T07:26:25.021Z,7.50
2022-12-08T07:28:51.657Z,7.50
2022-12-08T07:31:24.083Z,7.50
2022-12-08T07:33:54.223Z,7.50
2022-12-08T07:36:28.354Z,7.50
2022-12-08T07:38:57.505Z,7.50
2022-12-08T07:41:25.750Z,7.50
2022-12-08T07:43:53.688Z,7.50
2022-12-08T07:46:22.336Z,7.50
2022-12-08T07:48:49.199Z,7.50
2022-12-08T07:51:18.872Z,7.50
2022-12-08T07:53:53.718Z,7.50
2022-12-08T07:56:24.305Z,7.50
2022-12-08T07:58:51.018Z,7.50
2022-12-08T08:01:36.064Z,7.50
2022-12-08T08:04:05.100Z,7.50
2022-12-08T08:06:33.260Z,7.50
2022-12-08T08:09:00.107Z,7.50
2022-12-08T08:11:26.706Z,7.50
2022-12-08T08:13:53.707Z,7.50
2022-12-08T08:16:23.848Z,7.50
2022-12-08T08:18:51.301Z,7.50
2022-12-08T08:24:07.841Z,7.40
2022-12-08T08:26:37.246Z,7.40
2022-12-08T08:29:05.082Z,7.40
2022-12-08T08:31:31.785Z,7.40
2022-12-08T08:34:00.296Z,7.40
2022-12-08T08:36:26.889Z,7.40
2022-12-08T08:38:53.557Z,7.40
2022-12-08T08:41:20.143Z,7.40
2022-12-08T08:43:46.788Z,7.40
2022-12-08T08:46:13.396Z,7.40
2022-12-08T08:48:42.205Z,7.40
2022-12-08T08:51:10.542Z,7.40
2022-12-08T08:53:38.259Z,7.40
2022-12-08T08:56:16.552Z,7.40
2022-12-08T08:58:43.149Z,7.50
2022-12-08T09:01:24.770Z,7.50
2022-12-08T09:03:52.777Z,7.50
2022-12-08T09:06:23.683Z,7.50
2022-12-08T09:08:51.309Z,7.50
2022-12-08T09:11:18.615Z,7.50
2022-12-08T09:13:49.311Z,7.50
2022-12-08T09:16:16.256Z,7.60
2022-12-08T09:18:43.075Z,7.60
2022-12-08T09:21:15.112Z,7.60
2022-12-08T09:23:42.492Z,7.60
2022-12-08T09:26:09.299Z,7.60
2022-12-08T09:28:36.051Z,7.60
2022-12-08T09:31:03.006Z,7.60
2022-12-08T09:33:29.994Z,7.60
2022-12-08T09:36:00.985Z,7.70
2022-12-08T09:38:27.633Z,7.70
2022-12-08T09:40:56.517Z,7.70
2022-12-08T09:43:38.282Z,7.70
2022-12-08T09:46:10.793Z,7.70
2022-12-08T09:48:47.287Z,7.70
2022-12-08T09:51:15.918Z,7.80
2022-12-08T09:54:02.397Z,7.80
2022-12-08T09:56:37.568Z,7.80
2022-12-08T09:59:29.069Z,7.80
2022-12-08T10:01:58.762Z,7.80
2022-12-08T10:04:34.903Z,7.80
2022-12-08T10:07:30.695Z,7.90
2022-12-08T10:10:11.913Z,7.90
2022-12-08T10:13:16.273Z,7.90
2022-12-08T10:16:12.904Z,7.90
2022-12-08T10:18:43.817Z,8.00
2022-12-08T10:21:22.522Z,8.00
2022-12-08T10:23:55.287Z,8.00
2022-12-08T10:26:26.924Z,8.00
2022-12-08T10:28:57.290Z,8.00
2022-12-08T10:31:26.150Z,8.00
2022-12-08T10:33:59.564Z,8.00
2022-12-08T10:37:08.956Z,8.10
2022-12-08T10:39:43.616Z,8.20
2022-12-08T10:42:14.826Z,8.30
2022-12-08T10:44:53.824Z,8.30
2022-12-08T10:47:25.869Z,8.40
2022-12-08T10:50:19.474Z,8.50
2022-12-08T10:53:10.361Z,8.50
2022-12-08T10:55:50.106Z,8.50
2022-12-08T10:58:31.643Z,8.50
2022-12-08T11:01:18.535Z,8.50
2022-12-08T11:03:54.852Z,8.50
2022-12-08T11:06:32.508Z,8.50
2022-12-08T11:09:06.850Z,8.50
2022-12-08T11:11:56.594Z,8.50
2022-12-08T11:14:29.274Z,8.50
2022-12-08T11:17:05.076Z,8.50
2022-12-08T11:19:54.603Z,8.50
2022-12-08T11:22:25.792Z,8.50
2022-12-08T11:25:07.563Z,8.50
2022-12-08T11:27:36.558Z,8.60
2022-12-08T11:30:14.763Z,8.60
2022-12-08T11:32:49.378Z,8.60
2022-12-08T11:35:30.995Z,8.60
2022-12-08T11:38:20.441Z,8.70
2022-12-08T11:40:55.225Z,8.70
2022-12-08T11:43:28.094Z,8.80
2022-12-08T11:46:00.257Z,8.80
2022-12-08T11:48:35.680Z,8.80
2022-12-08T11:51:24.072Z,8.80
2022-12-08T11:54:13.036Z,8.90
2022-12-08T11:56:46.749Z,8.90
2022-12-08T11:59:31.931Z,9.00
2022-12-08T12:02:05.374Z,8.90
2022-12-08T12:04:37.594Z,8.90
2022-12-08T12:07:09.656Z,9.00
2022-12-08T12:10:16.699Z,9.00
2022-12-08T12:13:05.589Z,9.00
2022-12-08T12:18:49.555Z,9.00
2022-12-08T12:21:21.971Z,9.00
2022-12-08T12:24:14.159Z,9.00
2022-12-08T12:27:02.441Z,9.00
2022-12-08T12:29:36.684Z,9.10
2022-12-08T12:32:12.427Z,9.00
2022-12-08T12:34:50.846Z,9.10
2022-12-08T12:37:43.031Z,9.10
2022-12-08T12:40:39.420Z,9.10
2022-12-08T12:43:24.076Z,9.10
2022-12-08T12:45:53.571Z,9.10
2022-12-08T12:48:24.400Z,9.10
2022-12-08T12:50:56.321Z,9.10
2022-12-08T12:53:27.135Z,9.10
2022-12-08T12:56:02.076Z,9.00
2022-12-08T12:58:32.337Z,9.00
2022-12-08T13:01:11.592Z,9.00
2022-12-08T13:03:43.304Z,9.00
2022-12-08T13:06:16.817Z,9.00
2022-12-08T13:08:51.844Z,9.00
2022-12-08T13:11:24.166Z,8.90
2022-12-08T13:14:00.112Z,8.90
2022-12-08T13:16:31.455Z,9.00
2022-12-08T13:19:02.314Z,8.90
2022-12-08T13:21:35.705Z,8.90
2022-12-08T13:24:13.970Z,8.90
2022-12-08T13:27:13.073Z,8.90
2022-12-08T13:29:42.181Z,8.90
2022-12-08T13:32:10.943Z,8.90
2022-12-08T13:34:46.475Z,8.90
2022-12-08T13:37:20.205Z,8.90
2022-12-08T13:40:16.907Z,8.90
2022-12-08T13:42:56.399Z,9.00
2022-12-08T13:46:20.260Z,9.00
2022-12-08T13:49:41.946Z,9.10
2022-12-08T13:57:34.872Z,9.20
2022-12-08T14:00:17.653Z,9.30
2022-12-08T14:02:49.717Z,9.30
2022-12-08T14:05:34.612Z,9.30
2022-12-08T14:08:57.771Z,9.40
2022-12-08T14:11:36.683Z,9.40
2022-12-08T14:14:45.898Z,9.40
2022-12-08T14:17:14.610Z,9.50
2022-12-08T14:19:46.025Z,9.40
2022-12-08T14:22:17.971Z,9.30
2022-12-08T14:24:54.392Z,9.30
2022-12-08T14:27:26.162Z,9.20
2022-12-08T14:29:56.186Z,9.20
2022-12-08T14:32:28.078Z,9.10
2022-12-08T14:35:08.819Z,9.10
2022-12-08T14:37:41.700Z,9.00
2022-12-08T14:40:35.258Z,9.00
2022-12-08T14:43:07.977Z,8.90
2022-12-08T14:45:43.272Z,8.80
2022-12-08T14:48:40.630Z,8.80
2022-12-08T14:51:25.124Z,8.80
2022-12-08T14:54:15.115Z,8.70
2022-12-08T14:56:54.512Z,8.70
2022-12-08T14:59:30.131Z,8.70
2022-12-08T15:02:15.344Z,8.60
2022-12-08T15:04:48.844Z,8.60
2022-12-08T15:07:23.753Z,8.50
2022-12-08T15:10:13.880Z,8.50
2022-12-08T15:12:41.068Z,8.50
2022-12-08T15:15:10.471Z,8.40
2022-12-08T15:17:41.074Z,8.40
2022-12-08T15:20:31.667Z,8.40
2022-12-08T15:23:05.431Z,8.40
2022-12-08T15:25:32.338Z,8.40
2022-12-08T15:28:01.371Z,8.40
2022-12-08T15:30:28.509Z,8.40
2022-12-08T15:32:59.638Z,8.30
2022-12-08T15:35:27.604Z,8.30
2022-12-08T15:37:56.628Z,8.30
2022-12-08T15:40:27.797Z,8.40
2022-12-08T15:42:54.666Z,8.30
2022-12-08T15:45:30.416Z,8.30
2022-12-08T15:47:59.355Z,8.30
2022-12-08T15:50:25.981Z,8.30
2022-12-08T15:52:52.713Z,8.30
2022-12-08T15:55:23.460Z,8.20
2022-12-08T15:58:51.659Z,8.20
2022-12-08T16:00:52.853Z,8.20
2022-12-08T16:04:13.813Z,8.10
2022-12-08T16:07:19.154Z,8.10
2022-12-08T16:09:20.044Z,8.10
2022-12-08T16:12:09.962Z,8.10
2022-12-08T16:17:31.264Z,8.10
2022-12-08T16:20:05.288Z,8.10
2022-12-08T16:22:59.274Z,8.10
2022-12-08T16:25:52.756Z,8.10
2022-12-08T16:31:13.022Z,8.10
2022-12-08T16:33:43.878Z,8.10
2022-12-08T16:36:11.195Z,8.20
2022-12-08T16:38:40.427Z,8.10
2022-12-08T16:41:30.213Z,8.10
2022-12-08T16:44:02.809Z,8.10
2022-12-08T16:46:30.118Z,8.10
2022-12-08T16:48:58.733Z,8.10
2022-12-08T16:51:27.327Z,8.10
2022-12-08T16:54:00.335Z,8.10
2022-12-08T16:56:32.662Z,8.10
2022-12-08T16:59:02.489Z,8.10
2022-12-08T17:01:31.922Z,8.10
2022-12-08T17:04:29.886Z,8.10
2022-12-08T17:06:52.670Z,8.20
2022-12-08T17:09:21.550Z,8.20
2022-12-08T17:11:48.288Z,8.20
2022-12-08T17:14:15.126Z,8.20
2022-12-08T17:16:44.319Z,8.20
2022-12-08T17:19:18.905Z,8.20
2022-12-08T17:21:48.453Z,8.20
2022-12-08T17:24:21.766Z,8.20
2022-12-08T17:26:48.955Z,8.20
2022-12-08T17:29:19.856Z,8.20
2022-12-08T17:31:56.784Z,8.20
2022-12-08T17:34:26.963Z,8.20
2022-12-08T17:36:53.635Z,8.20
2022-12-08T17:39:20.263Z,8.20
2022-12-08T17:41:47.651Z,8.20
2022-12-08T17:44:19.133Z,8.20
2022-12-08T17:46:52.602Z,8.20
2022-12-08T17:49:23.634Z,8.20
2022-12-08T17:51:53.353Z,8.10
2022-12-08T17:54:21.349Z,8.10
2022-12-08T17:56:50.036Z,8.10
2022-12-08T17:59:18.398Z,8.10
2022-12-08T18:01:45.111Z,8.10
2022-12-08T18:04:12.778Z,8.10
2022-12-08T18:06:42.624Z,8.10
2022-12-08T18:09:11.846Z,8.10
2022-12-08T18:11:41.312Z,8.00
2022-12-08T18:14:11.522Z,8.00
2022-12-08T18:16:46.473Z,8.00
2022-12-08T18:19:14.381Z,7.90
2022-12-08T18:21:42.505Z,7.90
2022-12-08T18:24:23.655Z,7.80
2022-12-08T18:26:52.078Z,7.80
2022-12-08T18:29:21.521Z,7.70
2022-12-08T18:31:49.351Z,7.60
2022-12-08T18:34:22.961Z,7.60
2022-12-08T18:36:50.426Z,7.50
2022-12-08T18:39:26.315Z,7.50
2022-12-08T18:41:54.027Z,7.40
2022-12-08T18:44:20.936Z,7.30
2022-12-08T18:46:48.286Z,7.30
2022-12-08T18:49:20.970Z,7.20
2022-12-08T18:51:50.580Z,7.20
2022-12-08T18:54:22.110Z,7.10
2022-12-08T18:56:55.841Z,7.10
2022-12-08T18:59:25.784Z,7.00
2022-12-08T19:01:52.581Z,7.00
2022-12-08T19:04:33.681Z,6.90
2022-12-08T19:07:05.058Z,6.90
2022-12-08T19:09:34.805Z,6.90
2022-12-08T19:12:03.820Z,6.90
2022-12-08T19:14:30.494Z,6.90
2022-12-08T19:17:02.655Z,6.90
2022-12-08T19:19:29.328Z,6.90
2022-12-08T19:21:58.418Z,6.90
2022-12-08T19:24:38.722Z,6.90
2022-12-08T19:27:10.145Z,6.90
2022-12-08T19:29:39.969Z,6.90
2022-12-08T19:32:06.677Z,6.90
2022-12-08T19:34:39.099Z,6.90
2022-12-08T19:37:12.337Z,6.90
2022-12-08T19:39:59.829Z,6.90
2022-12-08T19:42:45.220Z,6.90
2022-12-08T19:45:22.599Z,6.90
2022-12-08T19:47:52.442Z,6.90
2022-12-08T19:50:41.261Z,6.90
2022-12-08T19:53:12.145Z,6.90
2022-12-08T19:55:40.980Z,6.90
2022-12-08T19:58:11.020Z,6.90
2022-12-08T20:00:40.233Z,6.90
2022-12-08T20:03:10.316Z,6.90
2022-12-08T20:05:40.839Z,7.00
2022-12-08T20:08:10.145Z,7.00
2022-12-08T20:10:42.032Z,7.00
2022-12-08T20:13:29.065Z,7.00
2022-12-08T20:15:58.192Z,7.00
2022-12-08T20:18:30.868Z,7.00
2022-12-08T20:20:57.563Z,7.00
2022-12-08T20:23:34.491Z,7.00
2022-12-08T20:26:08.102Z,7.00
2022-12-08T20:28:37.014Z,7.10
2022-12-08T20:31:07.053Z,7.10
2022-12-08T20:33:33.826Z,7.10
2022-12-08T20:36:07.254Z,7.10
2022-12-08T20:38:35.266Z,7.10
2022-12-08T20:41:02.000Z,7.20
2022-12-08T20:43:28.752Z,7.20
2022-12-08T20:45:55.400Z,7.20
2022-12-08T20:48:27.899Z,7.20
2022-12-08T20:51:00.060Z,7.20
2022-12-08T20:53:29.069Z,7.20
2022-12-08T20:55:55.876Z,7.30
2022-12-08T20:58:22.938Z,7.30
2022-12-08T21:00:49.879Z,7.30
2022-12-08T21:03:21.982Z,7.30
2022-12-08T21:05:50.402Z,7.30
2022-12-08T21:08:18.147Z,7.30
2022-12-08T21:10:45.678Z,7.30
2022-12-08T21:13:15.420Z,7.30
2022-12-08T21:15:46.486Z,7.30
2022-12-08T21:18:16.563Z,7.20
2022-12-08T21:20:43.769Z,7.30
2022-12-08T21:23:11.749Z,7.30
2022-12-08T21:25:43.336Z,7.30
2022-12-08T21:28:10.554Z,7.30
2022-12-08T21:30:39.790Z,7.20
2022-12-08T21:33:09.692Z,7.20
2022-12-08T21:35:39.093Z,7.20
2022-12-08T21:38:06.456Z,7.10
2022-12-08T21:40:38.460Z,7.00
2022-12-08T21:43:05.153Z,6.90
2022-12-08T21:45:34.000Z,6.90
2022-12-08T21:48:11.073Z,6.80
2022-12-08T21:50:41.108Z,6.70
2022-12-08T21:53:08.068Z,6.70
2022-12-08T21:55:38.805Z,6.60
2022-12-08T21:58:05.904Z,6.50
2022-12-08T22:00:32.800Z,6.50
2022-12-08T22:02:59.890Z,6.40
2022-12-08T22:05:26.679Z,6.40
2022-12-08T22:07:58.474Z,6.30
2022-12-08T22:10:25.350Z,6.30
2022-12-08T22:12:51.989Z,6.20
2022-12-08T22:15:18.894Z,6.20
2022-12-08T22:17:45.672Z,6.10
2022-12-08T22:20:14.591Z,6.10
2022-12-08T22:22:41.956Z,6.00
2022-12-08T22:25:12.175Z,6.00
2022-12-08T22:27:41.830Z,6.00
2022-12-08T22:30:21.087Z,5.90
2022-12-08T22:32:47.971Z,5.90
2022-12-08T22:35:16.373Z,5.80
2022-12-08T22:37:44.970Z,5.80
2022-12-08T22:40:16.689Z,5.70
2022-12-08T22:42:43.543Z,5.70
2022-12-08T22:45:17.065Z,5.70
2022-12-08T22:47:46.139Z,5.60
2022-12-08T22:50:12.980Z,5.60
2022-12-08T22:52:39.797Z,5.60
2022-12-08T22:55:06.993Z,5.50
2022-12-08T22:57:38.801Z,5.50
2022-12-08T23:00:11.429Z,5.50
2022-12-08T23:02:43.430Z,5.40
2022-12-08T23:05:17.713Z,5.40
2022-12-08T23:07:44.668Z,5.30
2022-12-08T23:10:11.888Z,5.40
2022-12-08T23:12:43.047Z,5.30
2022-12-08T23:15:18.545Z,5.30
2022-12-08T23:17:50.187Z,5.20
2022-12-08T23:20:17.024Z,5.20
2022-12-08T23:22:44.333Z,5.20
2022-12-08T23:25:11.246Z,5.20
2022-12-08T23:27:37.937Z,5.20
2022-12-08T23:30:10.898Z,5.20
2022-12-08T23:32:38.394Z,5.20
2022-12-08T23:35:06.026Z,5.10
2022-12-08T23:37:33.101Z,5.10
2022-12-08T23:40:03.974Z,5.10
2022-12-08T23:42:31.006Z,5.10
2022-12-08T23:44:57.616Z,5.10
2022-12-08T23:47:24.313Z,5.00
2022-12-08T23:49:51.157Z,5.00
2022-12-08T23:52:17.767Z,5.00
2022-12-08T23:54:49.055Z,5.00
2022-12-08T23:57:15.845Z,5.00
2022-12-08T23:59:42.653Z,5.00
